シカゴ/オヘア の空港の天気 - METARとTAF

シカゴ・オヘア国際空港 ( KORD / ORD ) - アメリカ イリノイ州シカゴ
飛行場実況気象(Metar)
観測時間07/28 19:51 CDT (07/29 00:51 UTC)
風向・風速西 4m/s
視程10km以上
天気現象
少しの雲 雲底高度 850m
少しの雲 雲底高度 5790m
全天の4割程度の雲 雲底高度 7620m
気温28.9℃
湿度72%
気圧1013.7hPa
METARKORD 290051Z 26008KT 10SM FEW028 FEW190 SCT250 29/23 A2995 RMK AO2 SLP137 T02890233 $
過去の天気等 Google飛行場航空写真 Wunderground天気予報

過去48時間のMETAR

飛行場予報(TAF)
発表時間: 7/28 18:37 CDT (7/28 23:37 UTC)
予報対象時間: 28日19時 CDT ~ 30日1時 CDT
風向・風速南西 6m/s
視程10km以上
全天の4割程度の雲 雲底高度 1070m
全天の8割程度の雲 雲底高度 4570m
29日1時 CDT ~ 29日4時 CDT に一時的に
風向・風速北 10m/s 瞬間風速 18m/s
視程3220m
天気現象雷雨
全天の4割程度の雲 雲底高度 270m
全天の8割程度の積乱雲 雲底高度 610m
29日7時 CDT から
風向・風速北西 7m/s 瞬間風速 11m/s
視程10km以上
全天の4割程度の雲 雲底高度 610m
全天の8割程度の雲 雲底高度 4570m
29日12時 CDT から
風向・風速北東 6m/s 瞬間風速 9m/s
視程10km以上
全天の8割程度の雲 雲底高度 760m
全天の8割程度の雲 雲底高度 1220m
29日18時 CDT から
風向・風速北北東 6m/s
視程10km以上
全天の4割程度の雲 雲底高度 910m
全天の4割程度の雲 雲底高度 7620m
KORD 282337Z 2900/3006 22011KT P6SM SCT035 BKN150
TEMPO 2906/2909 35020G35KT 2SM TSRA SCT009 BKN020CB
FM291200 32013G21KT P6SM SCT020 BKN150
FM291700 04012G18KT P6SM BKN025 BKN040
FM292300 03011KT P6SM SCT030 SCT250